sensor_id;sensor_type;location;lat;lon;timestamp;temperature;humidity
68691;DHT22;55675;49.588;8.640;2023-05-21T00:02:15;17.60;88.70
68691;DHT22;55675;49.588;8.640;2023-05-21T00:04:42;17.60;89.10
68691;DHT22;55675;49.588;8.640;2023-05-21T00:07:08;17.60;88.70
68691;DHT22;55675;49.588;8.640;2023-05-21T00:09:34;17.60;88.40
68691;DHT22;55675;49.588;8.640;2023-05-21T00:12:00;17.60;89.20
68691;DHT22;55675;49.588;8.640;2023-05-21T00:14:25;17.60;89.10
68691;DHT22;55675;49.588;8.640;2023-05-21T00:16:51;17.60;88.60
68691;DHT22;55675;49.588;8.640;2023-05-21T00:19:16;17.60;88.30
68691;DHT22;55675;49.588;8.640;2023-05-21T00:21:42;17.60;88.30
68691;DHT22;55675;49.588;8.640;2023-05-21T00:24:10;17.60;88.50
68691;DHT22;55675;49.588;8.640;2023-05-21T00:26:35;17.60;88.50
68691;DHT22;55675;49.588;8.640;2023-05-21T00:29:01;17.70;88.60
68691;DHT22;55675;49.588;8.640;2023-05-21T00:31:26;17.70;89.60
68691;DHT22;55675;49.588;8.640;2023-05-21T00:33:52;17.60;89.60
68691;DHT22;55675;49.588;8.640;2023-05-21T00:36:17;17.60;89.50
68691;DHT22;55675;49.588;8.640;2023-05-21T00:38:48;17.60;89.20
68691;DHT22;55675;49.588;8.640;2023-05-21T00:41:14;17.60;89.10
68691;DHT22;55675;49.588;8.640;2023-05-21T00:43:39;17.60;89.50
68691;DHT22;55675;49.588;8.640;2023-05-21T00:46:13;17.60;89.10
68691;DHT22;55675;49.588;8.640;2023-05-21T00:48:41;17.60;89.10
68691;DHT22;55675;49.588;8.640;2023-05-21T00:51:06;17.70;88.80
68691;DHT22;55675;49.588;8.640;2023-05-21T00:53:32;17.70;88.70
68691;DHT22;55675;49.588;8.640;2023-05-21T00:56:01;17.70;88.60
68691;DHT22;55675;49.588;8.640;2023-05-21T00:58:27;17.70;88.60
68691;DHT22;55675;49.588;8.640;2023-05-21T01:00:52;17.80;89.10
68691;DHT22;55675;49.588;8.640;2023-05-21T01:03:21;17.80;89.20
68691;DHT22;55675;49.588;8.640;2023-05-21T01:05:48;17.80;89.30
68691;DHT22;55675;49.588;8.640;2023-05-21T01:08:14;17.70;89.80
68691;DHT22;55675;49.588;8.640;2023-05-21T01:10:40;17.70;89.60
68691;DHT22;55675;49.588;8.640;2023-05-21T01:13:05;17.70;90.00
68691;DHT22;55675;49.588;8.640;2023-05-21T01:15:31;17.70;89.60
68691;DHT22;55675;49.588;8.640;2023-05-21T01:17:56;17.60;89.90
68691;DHT22;55675;49.588;8.640;2023-05-21T01:20:22;17.60;90.10
68691;DHT22;55675;49.588;8.640;2023-05-21T01:22:54;17.60;90.00
68691;DHT22;55675;49.588;8.640;2023-05-21T01:25:23;17.70;90.00
68691;DHT22;55675;49.588;8.640;2023-05-21T01:27:49;17.70;89.80
68691;DHT22;55675;49.588;8.640;2023-05-21T01:30:18;17.70;89.60
68691;DHT22;55675;49.588;8.640;2023-05-21T01:32:47;17.70;89.60
68691;DHT22;55675;49.588;8.640;2023-05-21T01:35:19;17.70;89.60
68691;DHT22;55675;49.588;8.640;2023-05-21T01:37:49;17.70;89.50
68691;DHT22;55675;49.588;8.640;2023-05-21T01:40:23;17.80;89.40
68691;DHT22;55675;49.588;8.640;2023-05-21T01:42:50;17.80;89.70
68691;DHT22;55675;49.588;8.640;2023-05-21T01:45:15;17.70;90.00
68691;DHT22;55675;49.588;8.640;2023-05-21T01:47:43;17.70;90.10
68691;DHT22;55675;49.588;8.640;2023-05-21T01:50:09;17.70;90.10
68691;DHT22;55675;49.588;8.640;2023-05-21T01:52:34;17.60;90.00
68691;DHT22;55675;49.588;8.640;2023-05-21T01:55:00;17.60;90.20
68691;DHT22;55675;49.588;8.640;2023-05-21T01:57:26;17.60;90.20
68691;DHT22;55675;49.588;8.640;2023-05-21T01:59:51;17.60;90.10
68691;DHT22;55675;49.588;8.640;2023-05-21T02:02:17;17.70;90.10
68691;DHT22;55675;49.588;8.640;2023-05-21T02:04:43;17.70;90.10
68691;DHT22;55675;49.588;8.640;2023-05-21T02:07:10;17.70;90.20
68691;DHT22;55675;49.588;8.640;2023-05-21T02:09:38;17.70;90.20
68691;DHT22;55675;49.588;8.640;2023-05-21T02:12:04;17.60;90.20
68691;DHT22;55675;49.588;8.640;2023-05-21T02:14:30;17.60;90.30
68691;DHT22;55675;49.588;8.640;2023-05-21T02:16:58;17.60;90.30
68691;DHT22;55675;49.588;8.640;2023-05-21T02:19:23;17.60;90.30
68691;DHT22;55675;49.588;8.640;2023-05-21T02:21:49;17.70;90.30
68691;DHT22;55675;49.588;8.640;2023-05-21T02:24:14;17.70;90.20
68691;DHT22;55675;49.588;8.640;2023-05-21T02:26:40;17.70;90.10
68691;DHT22;55675;49.588;8.640;2023-05-21T02:29:07;17.70;90.10
68691;DHT22;55675;49.588;8.640;2023-05-21T02:31:33;17.70;90.20
68691;DHT22;55675;49.588;8.640;2023-05-21T02:33:58;17.70;90.20
68691;DHT22;55675;49.588;8.640;2023-05-21T02:36:24;17.70;90.20
68691;DHT22;55675;49.588;8.640;2023-05-21T02:38:50;17.70;90.30
68691;DHT22;55675;49.588;8.640;2023-05-21T02:41:16;17.70;90.20
68691;DHT22;55675;49.588;8.640;2023-05-21T02:43:41;17.70;90.30
68691;DHT22;55675;49.588;8.640;2023-05-21T02:46:06;17.70;90.30
68691;DHT22;55675;49.588;8.640;2023-05-21T02:48:32;17.70;90.20
68691;DHT22;55675;49.588;8.640;2023-05-21T02:50:57;17.70;90.30
68691;DHT22;55675;49.588;8.640;2023-05-21T02:53:23;17.70;90.30
68691;DHT22;55675;49.588;8.640;2023-05-21T02:55:48;17.60;90.30
68691;DHT22;55675;49.588;8.640;2023-05-21T02:58:14;17.60;90.70
68691;DHT22;55675;49.588;8.640;2023-05-21T03:00:40;17.60;90.60
68691;DHT22;55675;49.588;8.640;2023-05-21T03:03:06;17.60;90.50
68691;DHT22;55675;49.588;8.640;2023-05-21T03:05:31;17.60;90.50
68691;DHT22;55675;49.588;8.640;2023-05-21T03:07:57;17.60;90.50
68691;DHT22;55675;49.588;8.640;2023-05-21T03:10:22;17.60;90.50
68691;DHT22;55675;49.588;8.640;2023-05-21T03:12:47;17.60;90.50
68691;DHT22;55675;49.588;8.640;2023-05-21T03:15:13;17.60;90.40
68691;DHT22;55675;49.588;8.640;2023-05-21T03:17:39;17.60;90.40
68691;DHT22;55675;49.588;8.640;2023-05-21T03:20:07;17.60;90.40
68691;DHT22;55675;49.588;8.640;2023-05-21T03:22:41;17.60;90.40
68691;DHT22;55675;49.588;8.640;2023-05-21T03:25:06;17.50;90.50
68691;DHT22;55675;49.588;8.640;2023-05-21T03:27:33;17.50;90.50
68691;DHT22;55675;49.588;8.640;2023-05-21T03:29:58;17.50;90.50
68691;DHT22;55675;49.588;8.640;2023-05-21T03:32:24;17.50;90.70
68691;DHT22;55675;49.588;8.640;2023-05-21T03:34:49;17.50;90.80
68691;DHT22;55675;49.588;8.640;2023-05-21T03:37:15;17.40;90.70
68691;DHT22;55675;49.588;8.640;2023-05-21T03:39:40;17.40;90.90
68691;DHT22;55675;49.588;8.640;2023-05-21T03:42:06;17.40;90.90
68691;DHT22;55675;49.588;8.640;2023-05-21T03:44:31;17.40;91.00
68691;DHT22;55675;49.588;8.640;2023-05-21T03:46:57;17.40;91.10
68691;DHT22;55675;49.588;8.640;2023-05-21T03:49:23;17.40;91.00
68691;DHT22;55675;49.588;8.640;2023-05-21T03:51:48;17.40;91.00
68691;DHT22;55675;49.588;8.640;2023-05-21T03:54:14;17.40;91.00
68691;DHT22;55675;49.588;8.640;2023-05-21T03:56:39;17.40;91.10
68691;DHT22;55675;49.588;8.640;2023-05-21T03:59:05;17.30;91.00
68691;DHT22;55675;49.588;8.640;2023-05-21T04:01:30;17.30;90.90
68691;DHT22;55675;49.588;8.640;2023-05-21T04:03:57;17.30;91.00
68691;DHT22;55675;49.588;8.640;2023-05-21T04:06:22;17.30;90.90
68691;DHT22;55675;49.588;8.640;2023-05-21T04:08:48;17.30;90.90
68691;DHT22;55675;49.588;8.640;2023-05-21T04:11:13;17.30;91.00
68691;DHT22;55675;49.588;8.640;2023-05-21T04:13:38;17.20;91.00
68691;DHT22;55675;49.588;8.640;2023-05-21T04:16:04;17.20;91.10
68691;DHT22;55675;49.588;8.640;2023-05-21T04:18:33;17.20;91.10
68691;DHT22;55675;49.588;8.640;2023-05-21T04:20:58;17.20;91.10
68691;DHT22;55675;49.588;8.640;2023-05-21T04:23:24;17.20;91.10
68691;DHT22;55675;49.588;8.640;2023-05-21T04:25:50;17.20;91.10
68691;DHT22;55675;49.588;8.640;2023-05-21T04:28:15;17.20;91.10
68691;DHT22;55675;49.588;8.640;2023-05-21T04:30:47;17.10;91.20
68691;DHT22;55675;49.588;8.640;2023-05-21T04:33:12;17.10;91.10
68691;DHT22;55675;49.588;8.640;2023-05-21T04:35:42;17.10;91.20
68691;DHT22;55675;49.588;8.640;2023-05-21T04:38:08;17.10;91.30
68691;DHT22;55675;49.588;8.640;2023-05-21T04:40:34;17.10;91.40
68691;DHT22;55675;49.588;8.640;2023-05-21T04:42:59;17.10;91.30
68691;DHT22;55675;49.588;8.640;2023-05-21T04:45:26;17.10;91.30
68691;DHT22;55675;49.588;8.640;2023-05-21T04:47:51;17.10;91.50
68691;DHT22;55675;49.588;8.640;2023-05-21T04:50:17;17.20;91.50
68691;DHT22;55675;49.588;8.640;2023-05-21T04:52:42;17.20;91.40
68691;DHT22;55675;49.588;8.640;2023-05-21T04:55:09;17.20;91.50
68691;DHT22;55675;49.588;8.640;2023-05-21T04:57:35;17.20;91.60
68691;DHT22;55675;49.588;8.640;2023-05-21T05:00:01;17.20;91.50
68691;DHT22;55675;49.588;8.640;2023-05-21T05:02:27;17.30;91.50
68691;DHT22;55675;49.588;8.640;2023-05-21T05:04:53;17.30;91.40
68691;DHT22;55675;49.588;8.640;2023-05-21T05:07:18;17.40;91.40
68691;DHT22;55675;49.588;8.640;2023-05-21T05:09:44;17.50;91.40
68691;DHT22;55675;49.588;8.640;2023-05-21T05:12:09;17.60;91.30
68691;DHT22;55675;49.588;8.640;2023-05-21T05:14:35;17.60;91.20
68691;DHT22;55675;49.588;8.640;2023-05-21T05:17:00;17.60;91.20
68691;DHT22;55675;49.588;8.640;2023-05-21T05:19:26;17.70;91.10
68691;DHT22;55675;49.588;8.640;2023-05-21T05:21:51;17.70;91.10
68691;DHT22;55675;49.588;8.640;2023-05-21T05:24:17;17.80;91.10
68691;DHT22;55675;49.588;8.640;2023-05-21T05:26:43;17.80;91.00
68691;DHT22;55675;49.588;8.640;2023-05-21T05:29:08;17.90;91.00
68691;DHT22;55675;49.588;8.640;2023-05-21T05:31:34;18.00;90.90
68691;DHT22;55675;49.588;8.640;2023-05-21T05:33:59;18.10;90.90
68691;DHT22;55675;49.588;8.640;2023-05-21T05:36:24;18.20;90.80
68691;DHT22;55675;49.588;8.640;2023-05-21T05:38:51;18.20;90.60
68691;DHT22;55675;49.588;8.640;2023-05-21T05:41:16;18.30;90.50
68691;DHT22;55675;49.588;8.640;2023-05-21T05:43:41;18.40;90.30
68691;DHT22;55675;49.588;8.640;2023-05-21T05:46:07;18.40;90.10
68691;DHT22;55675;49.588;8.640;2023-05-21T05:48:32;18.50;90.00
68691;DHT22;55675;49.588;8.640;2023-05-21T05:50:58;18.50;90.00
68691;DHT22;55675;49.588;8.640;2023-05-21T05:53:24;18.60;90.00
68691;DHT22;55675;49.588;8.640;2023-05-21T05:55:49;18.50;89.60
68691;DHT22;55675;49.588;8.640;2023-05-21T05:58:15;18.60;89.60
68691;DHT22;55675;49.588;8.640;2023-05-21T06:00:40;18.70;89.50
68691;DHT22;55675;49.588;8.640;2023-05-21T06:03:06;18.70;89.30
68691;DHT22;55675;49.588;8.640;2023-05-21T06:05:31;18.80;89.20
68691;DHT22;55675;49.588;8.640;2023-05-21T06:07:56;18.80;89.00
68691;DHT22;55675;49.588;8.640;2023-05-21T06:10:22;18.80;88.80
68691;DHT22;55675;49.588;8.640;2023-05-21T06:12:47;18.80;88.50
68691;DHT22;55675;49.588;8.640;2023-05-21T06:15:13;18.80;88.40
68691;DHT22;55675;49.588;8.640;2023-05-21T06:17:43;18.80;88.60
68691;DHT22;55675;49.588;8.640;2023-05-21T06:20:09;18.80;88.50
68691;DHT22;55675;49.588;8.640;2023-05-21T06:22:34;18.80;88.60
68691;DHT22;55675;49.588;8.640;2023-05-21T06:25:01;18.80;88.60
68691;DHT22;55675;49.588;8.640;2023-05-21T06:27:26;18.90;88.40
68691;DHT22;55675;49.588;8.640;2023-05-21T06:29:52;18.90;88.50
68691;DHT22;55675;49.588;8.640;2023-05-21T06:32:17;18.80;88.00
68691;DHT22;55675;49.588;8.640;2023-05-21T06:34:42;18.90;88.10
68691;DHT22;55675;49.588;8.640;2023-05-21T06:37:08;18.90;88.00
68691;DHT22;55675;49.588;8.640;2023-05-21T06:39:33;19.00;88.00
68691;DHT22;55675;49.588;8.640;2023-05-21T06:41:59;19.10;88.00
68691;DHT22;55675;49.588;8.640;2023-05-21T06:44:24;19.10;88.00
68691;DHT22;55675;49.588;8.640;2023-05-21T06:46:50;19.20;87.50
68691;DHT22;55675;49.588;8.640;2023-05-21T06:49:15;19.20;87.70
68691;DHT22;55675;49.588;8.640;2023-05-21T06:51:41;19.30;87.50
68691;DHT22;55675;49.588;8.640;2023-05-21T06:54:06;19.40;87.60
68691;DHT22;55675;49.588;8.640;2023-05-21T06:56:31;19.60;87.50
68691;DHT22;55675;49.588;8.640;2023-05-21T06:58:57;19.70;86.50
68691;DHT22;55675;49.588;8.640;2023-05-21T07:01:23;19.90;86.00
68691;DHT22;55675;49.588;8.640;2023-05-21T07:03:49;20.10;85.60
68691;DHT22;55675;49.588;8.640;2023-05-21T07:06:14;20.20;84.80
68691;DHT22;55675;49.588;8.640;2023-05-21T07:08:41;20.30;84.20
68691;DHT22;55675;49.588;8.640;2023-05-21T07:11:06;20.40;83.70
68691;DHT22;55675;49.588;8.640;2023-05-21T07:13:31;20.50;82.70
68691;DHT22;55675;49.588;8.640;2023-05-21T07:15:57;20.70;82.70
68691;DHT22;55675;49.588;8.640;2023-05-21T07:18:22;21.00;82.10
68691;DHT22;55675;49.588;8.640;2023-05-21T07:20:48;21.10;80.60
68691;DHT22;55675;49.588;8.640;2023-05-21T07:23:13;21.20;80.30
68691;DHT22;55675;49.588;8.640;2023-05-21T07:25:39;21.30;79.80
68691;DHT22;55675;49.588;8.640;2023-05-21T07:28:04;21.40;79.90
68691;DHT22;55675;49.588;8.640;2023-05-21T07:30:30;21.50;78.80
68691;DHT22;55675;49.588;8.640;2023-05-21T07:32:55;21.60;77.50
68691;DHT22;55675;49.588;8.640;2023-05-21T07:35:21;21.70;78.00
68691;DHT22;55675;49.588;8.640;2023-05-21T07:37:46;21.80;77.80
68691;DHT22;55675;49.588;8.640;2023-05-21T07:40:12;21.90;77.00
68691;DHT22;55675;49.588;8.640;2023-05-21T07:42:37;22.00;76.10
68691;DHT22;55675;49.588;8.640;2023-05-21T07:45:03;22.20;76.20
68691;DHT22;55675;49.588;8.640;2023-05-21T07:47:28;22.30;76.00
68691;DHT22;55675;49.588;8.640;2023-05-21T07:49:54;22.40;75.40
68691;DHT22;55675;49.588;8.640;2023-05-21T07:52:19;22.50;73.70
68691;DHT22;55675;49.588;8.640;2023-05-21T07:54:45;22.50;73.80
68691;DHT22;55675;49.588;8.640;2023-05-21T07:57:10;22.60;73.90
68691;DHT22;55675;49.588;8.640;2023-05-21T07:59:36;22.70;73.20
68691;DHT22;55675;49.588;8.640;2023-05-21T08:02:01;22.70;72.40
68691;DHT22;55675;49.588;8.640;2023-05-21T08:04:27;22.70;72.40
68691;DHT22;55675;49.588;8.640;2023-05-21T08:06:52;22.80;72.90
68691;DHT22;55675;49.588;8.640;2023-05-21T08:09:18;22.80;72.20
68691;DHT22;55675;49.588;8.640;2023-05-21T08:11:44;22.80;71.90
68691;DHT22;55675;49.588;8.640;2023-05-21T08:14:09;22.80;73.00
68691;DHT22;55675;49.588;8.640;2023-05-21T08:16:35;22.80;72.30
68691;DHT22;55675;49.588;8.640;2023-05-21T08:19:01;22.80;72.60
68691;DHT22;55675;49.588;8.640;2023-05-21T08:21:27;22.80;72.40
68691;DHT22;55675;49.588;8.640;2023-05-21T08:23:52;22.90;71.80
68691;DHT22;55675;49.588;8.640;2023-05-21T08:26:18;23.00;72.00
68691;DHT22;55675;49.588;8.640;2023-05-21T08:28:43;22.90;71.50
68691;DHT22;55675;49.588;8.640;2023-05-21T08:31:09;23.00;71.40
68691;DHT22;55675;49.588;8.640;2023-05-21T08:33:35;23.00;71.70
68691;DHT22;55675;49.588;8.640;2023-05-21T08:36:06;23.10;71.90
68691;DHT22;55675;49.588;8.640;2023-05-21T08:38:32;23.00;71.80
68691;DHT22;55675;49.588;8.640;2023-05-21T08:40:57;23.10;72.00
68691;DHT22;55675;49.588;8.640;2023-05-21T08:43:24;23.10;72.30
68691;DHT22;55675;49.588;8.640;2023-05-21T08:45:54;23.10;71.70
68691;DHT22;55675;49.588;8.640;2023-05-21T08:48:21;23.00;71.80
68691;DHT22;55675;49.588;8.640;2023-05-21T08:50:48;23.10;71.80
68691;DHT22;55675;49.588;8.640;2023-05-21T08:53:14;23.20;72.10
68691;DHT22;55675;49.588;8.640;2023-05-21T08:55:40;23.20;71.80
68691;DHT22;55675;49.588;8.640;2023-05-21T08:58:06;23.30;71.10
68691;DHT22;55675;49.588;8.640;2023-05-21T09:00:32;23.40;71.00
68691;DHT22;55675;49.588;8.640;2023-05-21T09:02:58;23.50;70.80
68691;DHT22;55675;49.588;8.640;2023-05-21T09:05:25;23.60;71.20
68691;DHT22;55675;49.588;8.640;2023-05-21T09:07:54;23.70;69.90
68691;DHT22;55675;49.588;8.640;2023-05-21T09:10:25;23.70;69.90
68691;DHT22;55675;49.588;8.640;2023-05-21T09:12:53;23.70;69.90
68691;DHT22;55675;49.588;8.640;2023-05-21T09:15:18;23.80;69.80
68691;DHT22;55675;49.588;8.640;2023-05-21T09:17:45;23.90;69.60
68691;DHT22;55675;49.588;8.640;2023-05-21T09:20:12;24.00;69.30
68691;DHT22;55675;49.588;8.640;2023-05-21T09:22:44;24.00;68.90
68691;DHT22;55675;49.588;8.640;2023-05-21T09:25:10;24.10;68.60
68691;DHT22;55675;49.588;8.640;2023-05-21T09:27:36;24.10;68.90
68691;DHT22;55675;49.588;8.640;2023-05-21T09:30:02;24.30;68.50
68691;DHT22;55675;49.588;8.640;2023-05-21T09:32:28;24.40;68.00
68691;DHT22;55675;49.588;8.640;2023-05-21T09:34:54;24.50;67.30
68691;DHT22;55675;49.588;8.640;2023-05-21T09:37:19;24.60;66.40
68691;DHT22;55675;49.588;8.640;2023-05-21T09:39:47;24.70;65.60
68691;DHT22;55675;49.588;8.640;2023-05-21T09:42:12;24.90;65.40
68691;DHT22;55675;49.588;8.640;2023-05-21T09:44:39;25.10;64.80
68691;DHT22;55675;49.588;8.640;2023-05-21T09:47:07;25.30;64.30
68691;DHT22;55675;49.588;8.640;2023-05-21T09:49:35;25.50;62.70
68691;DHT22;55675;49.588;8.640;2023-05-21T09:52:01;25.70;62.00
68691;DHT22;55675;49.588;8.640;2023-05-21T09:54:30;25.90;60.00
68691;DHT22;55675;49.588;8.640;2023-05-21T09:56:57;26.10;59.30
68691;DHT22;55675;49.588;8.640;2023-05-21T09:59:24;26.30;57.30
68691;DHT22;55675;49.588;8.640;2023-05-21T10:01:59;26.40;56.80
68691;DHT22;55675;49.588;8.640;2023-05-21T10:04:24;26.50;56.50
68691;DHT22;55675;49.588;8.640;2023-05-21T10:06:50;26.60;55.20
68691;DHT22;55675;49.588;8.640;2023-05-21T10:09:17;26.70;55.90
68691;DHT22;55675;49.588;8.640;2023-05-21T10:11:43;26.80;54.80
68691;DHT22;55675;49.588;8.640;2023-05-21T10:14:13;26.80;54.80
68691;DHT22;55675;49.588;8.640;2023-05-21T10:16:39;26.90;54.60
68691;DHT22;55675;49.588;8.640;2023-05-21T10:19:05;26.90;54.30
68691;DHT22;55675;49.588;8.640;2023-05-21T10:21:35;26.90;54.60
68691;DHT22;55675;49.588;8.640;2023-05-21T10:24:01;26.90;53.90
68691;DHT22;55675;49.588;8.640;2023-05-21T10:26:26;27.00;55.50
68691;DHT22;55675;49.588;8.640;2023-05-21T10:28:53;27.00;53.70
68691;DHT22;55675;49.588;8.640;2023-05-21T10:31:20;27.10;55.10
68691;DHT22;55675;49.588;8.640;2023-05-21T10:33:46;27.20;54.20
68691;DHT22;55675;49.588;8.640;2023-05-21T10:36:13;27.20;54.30
68691;DHT22;55675;49.588;8.640;2023-05-21T10:38:40;27.20;54.00
68691;DHT22;55675;49.588;8.640;2023-05-21T10:41:07;27.10;53.80
68691;DHT22;55675;49.588;8.640;2023-05-21T10:46:24;27.20;54.00
68691;DHT22;55675;49.588;8.640;2023-05-21T10:51:17;27.40;54.10
68691;DHT22;55675;49.588;8.640;2023-05-21T10:53:58;27.50;53.80
68691;DHT22;55675;49.588;8.640;2023-05-21T10:56:29;27.60;53.10
68691;DHT22;55675;49.588;8.640;2023-05-21T11:01:22;27.60;52.70
68691;DHT22;55675;49.588;8.640;2023-05-21T11:03:50;27.70;52.80
68691;DHT22;55675;49.588;8.640;2023-05-21T11:06:22;27.80;52.70
68691;DHT22;55675;49.588;8.640;2023-05-21T11:08:49;27.90;52.70
68691;DHT22;55675;49.588;8.640;2023-05-21T11:14:34;28.10;51.60
68691;DHT22;55675;49.588;8.640;2023-05-21T11:17:48;28.20;52.40
68691;DHT22;55675;49.588;8.640;2023-05-21T11:19:46;28.20;51.70
68691;DHT22;55675;49.588;8.640;2023-05-21T11:22:25;28.30;50.90
68691;DHT22;55675;49.588;8.640;2023-05-21T11:24:51;28.30;51.90
68691;DHT22;55675;49.588;8.640;2023-05-21T11:27:35;28.40;51.10
68691;DHT22;55675;49.588;8.640;2023-05-21T11:32:30;28.60;50.60
68691;DHT22;55675;49.588;8.640;2023-05-21T11:34:58;28.80;50.30
68691;DHT22;55675;49.588;8.640;2023-05-21T11:37:26;28.90;50.20
68691;DHT22;55675;49.588;8.640;2023-05-21T11:39:53;29.10;49.60
68691;DHT22;55675;49.588;8.640;2023-05-21T11:42:26;29.20;49.80
68691;DHT22;55675;49.588;8.640;2023-05-21T11:44:52;29.40;49.60
68691;DHT22;55675;49.588;8.640;2023-05-21T11:47:18;29.40;50.10
68691;DHT22;55675;49.588;8.640;2023-05-21T11:49:44;29.70;48.60
68691;DHT22;55675;49.588;8.640;2023-05-21T11:52:11;29.90;49.10
68691;DHT22;55675;49.588;8.640;2023-05-21T11:54:40;30.30;49.00
68691;DHT22;55675;49.588;8.640;2023-05-21T11:57:07;30.60;47.20
68691;DHT22;55675;49.588;8.640;2023-05-21T11:59:33;30.70;45.50
68691;DHT22;55675;49.588;8.640;2023-05-21T12:01:59;31.00;44.90
68691;DHT22;55675;49.588;8.640;2023-05-21T12:04:35;31.10;43.70
68691;DHT22;55675;49.588;8.640;2023-05-21T12:07:04;31.10;41.80
68691;DHT22;55675;49.588;8.640;2023-05-21T12:09:44;31.30;41.50
68691;DHT22;55675;49.588;8.640;2023-05-21T12:12:13;31.40;41.40
68691;DHT22;55675;49.588;8.640;2023-05-21T12:14:39;31.50;41.30
68691;DHT22;55675;49.588;8.640;2023-05-21T12:17:05;31.70;40.30
68691;DHT22;55675;49.588;8.640;2023-05-21T12:19:35;31.80;40.30
68691;DHT22;55675;49.588;8.640;2023-05-21T12:22:07;31.90;39.80
68691;DHT22;55675;49.588;8.640;2023-05-21T12:24:34;32.10;39.80
68691;DHT22;55675;49.588;8.640;2023-05-21T12:27:01;32.20;38.90
68691;DHT22;55675;49.588;8.640;2023-05-21T12:29:30;32.30;39.00
68691;DHT22;55675;49.588;8.640;2023-05-21T12:32:00;32.40;38.30
68691;DHT22;55675;49.588;8.640;2023-05-21T12:36:57;32.60;38.20
68691;DHT22;55675;49.588;8.640;2023-05-21T12:39:23;32.70;38.70
68691;DHT22;55675;49.588;8.640;2023-05-21T12:41:53;32.80;38.10
68691;DHT22;55675;49.588;8.640;2023-05-21T12:44:18;32.90;38.20
68691;DHT22;55675;49.588;8.640;2023-05-21T12:46:44;33.00;37.70
68691;DHT22;55675;49.588;8.640;2023-05-21T12:49:33;33.20;38.50
68691;DHT22;55675;49.588;8.640;2023-05-21T12:52:04;33.20;37.30
68691;DHT22;55675;49.588;8.640;2023-05-21T12:54:35;33.30;37.10
68691;DHT22;55675;49.588;8.640;2023-05-21T12:57:17;33.50;36.90
68691;DHT22;55675;49.588;8.640;2023-05-21T12:59:45;33.60;37.00
68691;DHT22;55675;49.588;8.640;2023-05-21T13:02:30;33.50;36.70
68691;DHT22;55675;49.588;8.640;2023-05-21T13:04:59;33.50;36.40
68691;DHT22;55675;49.588;8.640;2023-05-21T13:07:27;33.50;36.10
68691;DHT22;55675;49.588;8.640;2023-05-21T13:09:54;33.50;35.50
68691;DHT22;55675;49.588;8.640;2023-05-21T13:12:24;33.40;35.70
68691;DHT22;55675;49.588;8.640;2023-05-21T13:14:51;33.60;35.90
68691;DHT22;55675;49.588;8.640;2023-05-21T13:17:20;33.60;35.00
68691;DHT22;55675;49.588;8.640;2023-05-21T13:20:12;33.70;34.80
68691;DHT22;55675;49.588;8.640;2023-05-21T13:22:41;33.80;34.20
68691;DHT22;55675;49.588;8.640;2023-05-21T13:25:08;33.90;33.90
68691;DHT22;55675;49.588;8.640;2023-05-21T13:27:34;33.90;33.20
68691;DHT22;55675;49.588;8.640;2023-05-21T13:29:59;33.90;33.70
68691;DHT22;55675;49.588;8.640;2023-05-21T13:32:25;33.80;32.50
68691;DHT22;55675;49.588;8.640;2023-05-21T13:34:51;34.00;32.90
68691;DHT22;55675;49.588;8.640;2023-05-21T13:37:16;34.40;32.90
68691;DHT22;55675;49.588;8.640;2023-05-21T13:39:42;34.60;31.90
68691;DHT22;55675;49.588;8.640;2023-05-21T13:42:08;35.00;32.20
68691;DHT22;55675;49.588;8.640;2023-05-21T13:44:33;35.10;31.00
68691;DHT22;55675;49.588;8.640;2023-05-21T13:47:02;35.20;30.60
68691;DHT22;55675;49.588;8.640;2023-05-21T13:49:27;35.80;30.30
68691;DHT22;55675;49.588;8.640;2023-05-21T13:51:53;37.20;29.80
68691;DHT22;55675;49.588;8.640;2023-05-21T13:54:18;38.90;28.40
68691;DHT22;55675;49.588;8.640;2023-05-21T13:56:44;40.00;26.70
68691;DHT22;55675;49.588;8.640;2023-05-21T13:59:10;39.70;26.30
68691;DHT22;55675;49.588;8.640;2023-05-21T14:01:35;40.30;26.20
68691;DHT22;55675;49.588;8.640;2023-05-21T14:04:01;41.20;25.30
68691;DHT22;55675;49.588;8.640;2023-05-21T14:06:30;41.90;24.70
68691;DHT22;55675;49.588;8.640;2023-05-21T14:08:59;42.10;23.90
68691;DHT22;55675;49.588;8.640;2023-05-21T14:11:26;42.80;22.70
68691;DHT22;55675;49.588;8.640;2023-05-21T14:13:52;43.40;22.10
68691;DHT22;55675;49.588;8.640;2023-05-21T14:16:18;44.30;22.00
68691;DHT22;55675;49.588;8.640;2023-05-21T14:18:44;44.90;20.80
68691;DHT22;55675;49.588;8.640;2023-05-21T14:21:10;44.90;20.60
68691;DHT22;55675;49.588;8.640;2023-05-21T14:23:35;44.90;21.00
68691;DHT22;55675;49.588;8.640;2023-05-21T14:26:01;45.10;20.90
68691;DHT22;55675;49.588;8.640;2023-05-21T14:28:26;45.20;20.70
68691;DHT22;55675;49.588;8.640;2023-05-21T14:30:52;45.30;20.40
68691;DHT22;55675;49.588;8.640;2023-05-21T14:33:17;45.50;20.40
68691;DHT22;55675;49.588;8.640;2023-05-21T14:35:43;45.30;20.70
68691;DHT22;55675;49.588;8.640;2023-05-21T14:38:09;45.80;20.50
68691;DHT22;55675;49.588;8.640;2023-05-21T14:40:35;46.30;19.60
68691;DHT22;55675;49.588;8.640;2023-05-21T14:43:01;46.20;19.50
68691;DHT22;55675;49.588;8.640;2023-05-21T14:45:26;46.30;19.30
68691;DHT22;55675;49.588;8.640;2023-05-21T14:47:52;46.10;19.90
68691;DHT22;55675;49.588;8.640;2023-05-21T14:50:17;46.30;18.70
68691;DHT22;55675;49.588;8.640;2023-05-21T14:52:43;45.90;19.50
68691;DHT22;55675;49.588;8.640;2023-05-21T14:55:09;45.50;19.60
68691;DHT22;55675;49.588;8.640;2023-05-21T14:57:36;44.50;19.50
68691;DHT22;55675;49.588;8.640;2023-05-21T15:00:02;43.70;20.30
68691;DHT22;55675;49.588;8.640;2023-05-21T15:02:27;43.00;21.00
68691;DHT22;55675;49.588;8.640;2023-05-21T15:04:53;42.10;21.00
68691;DHT22;55675;49.588;8.640;2023-05-21T15:07:20;41.60;21.20
68691;DHT22;55675;49.588;8.640;2023-05-21T15:09:45;41.00;21.70
68691;DHT22;55675;49.588;8.640;2023-05-21T15:12:11;40.60;22.30
68691;DHT22;55675;49.588;8.640;2023-05-21T15:14:36;40.10;22.80
68691;DHT22;55675;49.588;8.640;2023-05-21T15:17:02;39.50;23.30
68691;DHT22;55675;49.588;8.640;2023-05-21T15:19:27;38.70;23.90
68691;DHT22;55675;49.588;8.640;2023-05-21T15:21:53;38.10;24.60
68691;DHT22;55675;49.588;8.640;2023-05-21T15:24:18;37.60;25.00
68691;DHT22;55675;49.588;8.640;2023-05-21T15:26:44;37.40;25.20
68691;DHT22;55675;49.588;8.640;2023-05-21T15:29:09;37.20;25.60
68691;DHT22;55675;49.588;8.640;2023-05-21T15:31:35;37.10;25.80
68691;DHT22;55675;49.588;8.640;2023-05-21T15:34:01;36.90;26.00
68691;DHT22;55675;49.588;8.640;2023-05-21T15:36:26;36.60;26.30
68691;DHT22;55675;49.588;8.640;2023-05-21T15:38:52;36.30;26.40
68691;DHT22;55675;49.588;8.640;2023-05-21T15:41:17;36.20;26.60
68691;DHT22;55675;49.588;8.640;2023-05-21T15:43:44;36.10;26.70